Aérodrome :
LOGIN :

S'inscrire | Disclaimer

   EN    FR    IT 

 










Légende :    VFR   VFR Marginal   IFR   IFR Intensif   IFR Très Intensif
Visi : 
Plafond : 
>= 8 km
>= 3000ft
5 à 8 km
1000 à 3000 ft
1500m à 5 km
500 à 1000 ft
800 à 1500m
200 à 500 ft
< 800m
< 200 ft
Symboles :   Orages  Brouillard  Fortes neiges  Fortes précipitations  Vent > 20 kt
SIGMETs :   Divers  Orages  Givrage  Turbulence  Onde Orograph.  Cendres Volcan.






- Altitude de l'aérodrome : 336 ft
- Code IATA : GCI


EGJB - Guernsey

DERNIER METAR :
  • 240150Z 07010KT 9999 BKN013 07/04 Q1023

METARs EXPIRÉS :
  • 240050Z 07009KT 9999 FEW014 06/04 Q1024
  • 232350Z 06008KT 9999 BKN013 06/04 Q1024
  • 232320Z 08010KT 9999 BKN013 06/04 Q1024

TAF TAF EGJB
Valide du 24 à 00h jusqu'au 24 à 09h UTC


232257Z 2400/2409 09008KT 9999 BKN012
TEMPO 2400/2409 8000
PROB30
TEMPO 2402/2409 4000 BR BKN006
ATIS : +44 1481 238 957



MET'MAP, la Météo Aéronautique d'un coup d'oeil ! - Copyright ORBIFLY Décembre 2007 - Disclaimer

ORBIFLY MET'MAP TEAM :

Programmation & Développement : Alexandra Zaïnal
Sur une idée originale de : Baudouin d'Aumeries
Assistance à la programmation : Marc-Olivier Méhu
Soutien technique & logistique : Manuel Goepfert

Contact : metmap@orbifly.com




SOURCES & CREDITS :

   NOAA